Time;durP1;ratioP1;P1;durP2;ratioP2;P2;SDS_P1;SDS_P2;PMS_P1;PMS_P2;Temp;Humidity;BMP_temperature;BMP_pressure;BME280_temperature;BME280_humidity;BME280_pressure;Samples;Min_cycle;Max_cycle;Signal;HPM_P1;HPM_P2
2023/08/23 00:00:14;;;;;;;4.80;4.40;;;24.60;99.90;;;;;;5029112;28;20202;-68
2023/08/23 00:02:40;;;;;;;5.25;4.70;;;24.60;99.90;;;;;;5042989;28;20301;-67
2023/08/23 00:05:07;;;;;;;5.28;4.78;;;24.50;99.90;;;;;;5053297;28;20202;-67
2023/08/23 00:07:33;;;;;;;4.97;4.60;;;24.60;99.90;;;;;;5046794;28;20217;-68
2023/08/23 00:09:59;;;;;;;4.70;4.22;;;24.60;99.90;;;;;;5027790;28;20190;-67
2023/08/23 00:12:24;;;;;;;5.22;4.30;;;24.60;99.90;;;;;;5045257;28;20190;-67
2023/08/23 00:14:50;;;;;;;4.63;4.22;;;24.60;99.90;;;;;;5046414;28;20633;-68
2023/08/23 00:17:16;;;;;;;4.93;4.53;;;24.50;99.90;;;;;;5028623;28;20194;-68
2023/08/23 00:19:42;;;;;;;4.93;4.53;;;24.50;99.90;;;;;;5053304;28;20202;-67
2023/08/23 00:22:07;;;;;;;5.05;4.55;;;24.50;99.90;;;;;;5053040;28;20217;-67
2023/08/23 00:24:33;;;;;;;4.70;4.28;;;24.50;99.90;;;;;;5053102;28;20210;-68
2023/08/23 00:26:59;;;;;;;5.10;4.60;;;24.60;99.90;;;;;;5039560;28;20219;-67
2023/08/23 00:29:25;;;;;;;5.18;4.63;;;24.60;99.90;;;;;;5036620;28;20628;-67
2023/08/23 00:31:50;;;;;;;4.85;4.45;;;24.60;99.90;;;;;;5046135;28;20191;-67
2023/08/23 00:34:16;;;;;;;5.93;5.35;;;24.50;99.90;;;;;;5052548;28;20191;-67
2023/08/23 00:36:42;;;;;;;4.78;4.43;;;24.50;99.90;;;;;;5036390;28;20182;-68
2023/08/23 00:39:08;;;;;;;5.07;4.50;;;24.60;99.90;;;;;;5027789;28;20220;-67
2023/08/23 00:41:34;;;;;;;4.63;4.32;;;24.50;99.90;;;;;;5036617;28;20572;-67
2023/08/23 00:44:03;;;;;;;5.35;4.38;;;24.50;99.90;;;;;;5044511;28;20186;-68
2023/08/23 00:46:29;;;;;;;4.93;4.60;;;24.50;99.90;;;;;;5052725;28;20213;-67
2023/08/23 00:48:55;;;;;;;4.97;4.57;;;24.50;99.90;;;;;;5045563;28;20182;-68
2023/08/23 00:51:21;;;;;;;4.80;4.35;;;24.40;99.90;;;;;;5036052;28;20182;-68
2023/08/23 00:53:47;;;;;;;5.68;5.18;;;24.50;99.90;;;;;;5053223;28;20186;-67
2023/08/23 00:56:13;;;;;;;4.93;4.53;;;24.50;99.90;;;;;;5040674;28;20270;-67
2023/08/23 00:58:39;;;;;;;4.85;4.45;;;24.50;99.90;;;;;;5024020;28;20269;-67
2023/08/23 01:01:05;;;;;;;5.05;4.55;;;24.50;99.90;;;;;;5035668;28;20205;-67
2023/08/23 01:03:32;;;;;;;4.85;4.43;;;24.40;99.90;;;;;;5035850;28;20179;-66
2023/08/23 01:06:15;;;;;;;4.80;4.40;;;24.40;99.90;;;;;;5045467;28;20226;-68
2023/08/23 01:09:13;;;;;;;4.65;4.30;;;24.40;99.90;;;;;;5036295;28;20195;-67
2023/08/23 01:12:19;;;;;;;5.40;4.50;;;24.40;99.90;;;;;;5036550;28;20190;-67
2023/08/23 01:14:52;;;;;;;4.68;4.28;;;24.40;99.90;;;;;;5032190;28;20224;-68
2023/08/23 01:17:21;;;;;;;4.95;4.53;;;24.40;99.90;;;;;;5036530;28;20270;-67
2023/08/23 01:19:51;;;;;;;5.10;4.60;;;24.40;99.90;;;;;;5043709;28;20198;-67
2023/08/23 01:22:21;;;;;;;4.82;4.43;;;24.30;99.90;;;;;;5051919;28;20301;-67
2023/08/23 01:24:48;;;;;;;5.13;4.63;;;24.40;99.90;;;;;;5027336;28;20210;-67
2023/08/23 01:27:18;;;;;;;5.20;4.40;;;24.30;99.90;;;;;;5026768;28;20186;-68
2023/08/23 01:29:46;;;;;;;4.85;4.35;;;24.30;99.90;;;;;;5048402;28;20689;-67
2023/08/23 01:32:30;;;;;;;4.82;4.20;;;24.30;99.90;;;;;;5052022;28;20616;-67
2023/08/23 01:35:10;;;;;;;4.95;4.50;;;24.30;99.90;;;;;;5051339;28;20229;-67
2023/08/23 01:37:40;;;;;;;4.78;4.38;;;24.30;99.90;;;;;;5030666;28;20193;-67
2023/08/23 01:40:10;;;;;;;4.82;4.32;;;24.30;99.90;;;;;;5049612;28;20241;-67
2023/08/23 01:42:39;;;;;;;5.30;4.75;;;24.30;99.90;;;;;;5046203;28;20190;-67
2023/08/23 01:45:07;;;;;;;4.75;4.35;;;24.30;99.90;;;;;;5026212;28;20815;-67
2023/08/23 01:47:33;;;;;;;4.72;4.32;;;24.20;99.90;;;;;;5052080;28;20182;-67
2023/08/23 01:49:59;;;;;;;4.88;4.35;;;24.30;99.90;;;;;;5035273;28;20194;-68
2023/08/23 01:52:25;;;;;;;5.90;4.30;;;24.30;99.90;;;;;;5052035;28;20187;-68
2023/08/23 01:54:52;;;;;;;5.00;4.65;;;24.20;99.90;;;;;;5051572;28;20592;-67
2023/08/23 01:57:17;;;;;;;4.68;4.28;;;24.20;99.90;;;;;;5051782;28;20213;-68
2023/08/23 01:59:47;;;;;;;6.32;4.40;;;24.20;99.90;;;;;;5035329;28;20201;-67
2023/08/23 02:02:13;;;;;;;5.38;4.57;;;24.20;99.90;;;;;;5027986;28;20291;-67
2023/08/23 02:04:38;;;;;;;4.53;4.18;;;24.20;99.90;;;;;;5036825;28;20202;-67
2023/08/23 02:07:04;;;;;;;5.15;4.28;;;24.20;99.90;;;;;;5036987;28;20176;-67
2023/08/23 02:09:31;;;;;;;7.53;4.32;;;24.20;99.90;;;;;;5032226;28;20211;-67
2023/08/23 02:11:57;;;;;;;5.22;4.72;;;24.20;99.90;;;;;;5028389;28;20226;-68
2023/08/23 02:14:23;;;;;;;5.10;4.57;;;24.20;99.90;;;;;;5003493;28;20405;-67
2023/08/23 02:16:49;;;;;;;5.10;4.70;;;24.10;99.90;;;;;;4995674;28;20187;-67
2023/08/23 02:19:14;;;;;;;5.13;4.63;;;24.20;99.90;;;;;;5029302;28;20206;-67
2023/08/23 02:21:40;;;;;;;5.10;4.72;;;24.20;99.90;;;;;;4999313;28;20215;-67
2023/08/23 02:24:07;;;;;;;4.68;4.15;;;24.10;99.90;;;;;;5030452;28;20210;-67
2023/08/23 02:26:37;;;;;;;4.20;3.90;;;24.20;99.90;;;;;;5025852;28;20220;-67
2023/08/23 02:29:03;;;;;;;4.82;4.25;;;24.20;99.90;;;;;;5031509;28;20245;-67
2023/08/23 02:31:30;;;;;;;4.45;4.13;;;24.20;99.90;;;;;;5031578;28;20206;-67
2023/08/23 02:33:56;;;;;;;4.57;4.18;;;24.10;99.90;;;;;;5031520;28;20195;-67
2023/08/23 02:36:22;;;;;;;5.00;4.60;;;24.10;99.90;;;;;;5031648;28;20266;-67
2023/08/23 02:38:47;;;;;;;4.82;4.40;;;24.10;99.90;;;;;;5031758;28;20194;-67
2023/08/23 02:41:14;;;;;;;4.90;4.50;;;24.10;99.90;;;;;;5014916;28;20306;-67
2023/08/23 02:43:39;;;;;;;5.25;4.40;;;24.10;99.90;;;;;;5031357;28;20198;-67
2023/08/23 02:46:06;;;;;;;4.80;4.40;;;24.10;99.90;;;;;;5015114;28;20199;-67
2023/08/23 02:48:33;;;;;;;5.28;4.50;;;24.10;99.90;;;;;;5025418;28;20192;-67
2023/08/23 02:50:59;;;;;;;4.93;4.53;;;24.10;99.90;;;;;;5027248;28;20188;-68
2023/08/23 02:53:26;;;;;;;5.10;4.65;;;24.10;99.90;;;;;;5031165;28;20578;-67
2023/08/23 02:55:52;;;;;;;5.18;4.78;;;24.10;99.90;;;;;;5024578;28;20204;-67
2023/08/23 02:58:17;;;;;;;5.18;4.70;;;24.10;99.90;;;;;;5030809;28;20247;-68
2023/08/23 03:00:43;;;;;;;4.75;4.28;;;24.10;99.90;;;;;;5023048;28;20231;-67
2023/08/23 03:03:10;;;;;;;5.45;4.60;;;24.10;99.90;;;;;;5027833;28;20222;-68
2023/08/23 03:05:36;;;;;;;4.95;4.50;;;24.10;99.90;;;;;;5034705;28;20212;-67
2023/08/23 03:08:01;;;;;;;4.90;4.43;;;24.10;99.90;;;;;;5034519;28;20183;-67
2023/08/23 03:10:27;;;;;;;4.45;4.15;;;24.00;99.90;;;;;;5031873;28;20188;-67
2023/08/23 03:12:53;;;;;;;5.22;4.65;;;24.00;99.90;;;;;;5031456;28;20646;-67
2023/08/23 03:15:19;;;;;;;5.30;4.47;;;24.00;99.90;;;;;;5018218;28;20222;-68
2023/08/23 03:17:45;;;;;;;4.53;4.20;;;24.00;99.90;;;;;;5010847;28;20191;-67
2023/08/23 03:20:11;;;;;;;4.72;4.32;;;24.00;99.90;;;;;;5025585;28;20195;-67
2023/08/23 03:22:37;;;;;;;4.68;4.28;;;24.00;99.90;;;;;;5034289;28;20215;-67
2023/08/23 03:25:04;;;;;;;4.50;4.10;;;24.00;99.90;;;;;;5015660;28;20215;-67
2023/08/23 03:27:30;;;;;;;4.50;4.10;;;24.00;99.90;;;;;;5020094;28;20223;-68
2023/08/23 03:29:56;;;;;;;4.70;4.30;;;24.00;99.90;;;;;;5018456;28;20278;-68
2023/08/23 03:32:22;;;;;;;5.97;4.13;;;24.00;99.90;;;;;;5010835;28;20195;-67
2023/08/23 03:34:48;;;;;;;4.78;4.43;;;24.00;99.90;;;;;;5026279;28;20216;-67
2023/08/23 03:37:16;;;;;;;5.25;4.75;;;24.00;99.90;;;;;;5023369;28;20658;-67
2023/08/23 03:39:42;;;;;;;4.40;4.00;;;24.00;99.90;;;;;;5034207;28;20634;-67
2023/08/23 03:42:08;;;;;;;5.00;4.45;;;23.90;99.90;;;;;;5025759;28;20297;-67
2023/08/23 03:44:33;;;;;;;4.45;4.05;;;23.90;99.90;;;;;;5048014;28;20224;-67
2023/08/23 03:46:59;;;;;;;4.45;4.05;;;23.90;99.90;;;;;;5028914;28;20273;-67
2023/08/23 03:49:25;;;;;;;4.63;4.22;;;24.00;99.90;;;;;;5044142;28;20183;-67
2023/08/23 03:51:51;;;;;;;4.75;4.35;;;24.00;99.90;;;;;;5045496;28;20393;-68
2023/08/23 03:54:21;;;;;;;5.32;4.88;;;24.00;99.90;;;;;;5020683;28;20690;-67
2023/08/23 03:56:47;;;;;;;4.80;4.22;;;24.00;99.90;;;;;;5045330;28;20256;-67
2023/08/23 03:59:13;;;;;;;5.13;4.47;;;24.00;99.90;;;;;;5054052;28;20194;-67
2023/08/23 04:01:38;;;;;;;4.70;4.20;;;24.00;99.90;;;;;;5047091;28;20269;-67
2023/08/23 04:04:05;;;;;;;5.13;4.60;;;24.00;99.90;;;;;;5043434;28;20183;-67
2023/08/23 04:06:32;;;;;;;4.50;4.10;;;24.00;99.90;;;;;;5047800;28;20203;-67
2023/08/23 04:08:57;;;;;;;4.60;4.00;;;24.00;99.90;;;;;;5050469;28;20194;-68
2023/08/23 04:11:24;;;;;;;3.83;3.42;;;23.90;99.90;;;;;;5045323;28;20183;-67
2023/08/23 04:13:51;;;;;;;5.28;4.78;;;23.90;99.90;;;;;;5036994;28;20220;-67
2023/08/23 04:16:17;;;;;;;4.72;4.32;;;23.90;99.90;;;;;;5036933;28;20284;-67
2023/08/23 04:18:43;;;;;;;4.72;4.30;;;23.90;99.90;;;;;;5036553;28;20234;-67
2023/08/23 04:21:10;;;;;;;4.43;4.03;;;24.00;99.90;;;;;;5053537;28;20199;-67
2023/08/23 04:23:36;;;;;;;4.80;3.85;;;23.90;99.90;;;;;;5053131;28;20179;-67
2023/08/23 04:26:02;;;;;;;4.63;4.18;;;24.00;99.90;;;;;;5036727;28;20599;-67
2023/08/23 04:28:28;;;;;;;4.38;4.00;;;24.00;99.90;;;;;;5053286;28;20190;-67
2023/08/23 04:31:01;;;;;;;4.50;4.10;;;24.10;99.90;;;;;;5029831;28;20191;-68
2023/08/23 04:33:29;;;;;;;4.75;4.35;;;24.00;99.90;;;;;;5039331;28;20251;-67
2023/08/23 04:35:56;;;;;;;4.65;4.25;;;23.90;99.90;;;;;;5027899;28;20207;-67
2023/08/23 04:38:21;;;;;;;6.43;4.63;;;24.00;99.90;;;;;;5036207;28;20190;-68
2023/08/23 04:40:47;;;;;;;4.60;4.22;;;24.00;99.90;;;;;;5028069;28;20195;-67
2023/08/23 04:43:13;;;;;;;4.15;3.85;;;23.90;99.90;;;;;;5050054;28;20206;-68
2023/08/23 04:45:39;;;;;;;5.00;4.25;;;23.90;99.90;;;;;;5030812;28;20202;-67
2023/08/23 04:48:07;;;;;;;4.85;4.15;;;23.90;99.90;;;;;;5044334;28;20182;-67
2023/08/23 04:50:33;;;;;;;5.03;4.10;;;23.80;99.90;;;;;;5036610;28;20175;-67
2023/08/23 04:53:00;;;;;;;4.57;4.18;;;23.90;99.90;;;;;;5027753;28;20263;-67
2023/08/23 04:55:26;;;;;;;5.15;4.25;;;23.90;99.90;;;;;;5044634;28;20206;-67
2023/08/23 04:57:52;;;;;;;6.22;4.32;;;23.80;99.90;;;;;;5036378;28;20190;-67
2023/08/23 05:00:17;;;;;;;4.40;4.00;;;23.80;99.90;;;;;;5052535;28;20199;-68
2023/08/23 05:02:43;;;;;;;3.90;3.60;;;23.80;99.90;;;;;;5035855;28;20582;-67
2023/08/23 05:05:09;;;;;;;4.93;3.83;;;23.80;99.90;;;;;;5050353;28;20202;-67
2023/08/23 05:07:35;;;;;;;4.70;4.20;;;23.80;99.90;;;;;;5035524;28;20201;-68
2023/08/23 05:10:04;;;;;;;4.63;3.55;;;23.80;99.90;;;;;;5035672;28;20198;-67
2023/08/23 05:12:32;;;;;;;4.60;4.13;;;23.80;99.90;;;;;;5029076;28;20245;-67
2023/08/23 05:14:58;;;;;;;4.72;4.10;;;23.80;99.90;;;;;;5045451;28;20218;-67
2023/08/23 05:17:24;;;;;;;4.22;3.83;;;23.80;99.90;;;;;;5039471;28;20220;-67
2023/08/23 05:19:50;;;;;;;4.57;4.18;;;23.80;99.90;;;;;;5026413;28;20205;-68
2023/08/23 05:22:15;;;;;;;5.28;4.22;;;23.80;99.90;;;;;;5045264;28;20211;-67
2023/08/23 05:24:41;;;;;;;4.75;4.28;;;23.80;99.90;;;;;;5028688;28;20204;-68
2023/08/23 05:27:07;;;;;;;4.90;4.30;;;23.90;99.90;;;;;;5048170;28;20171;-67
2023/08/23 05:29:33;;;;;;;6.95;4.72;;;23.90;99.90;;;;;;5050751;28;20194;-67
2023/08/23 05:31:58;;;;;;;5.22;4.32;;;23.90;99.90;;;;;;5021168;28;20187;-67
2023/08/23 05:34:24;;;;;;;6.38;4.45;;;24.00;99.90;;;;;;5027134;28;20186;-67
2023/08/23 05:36:51;;;;;;;4.70;4.30;;;24.00;99.90;;;;;;5015855;28;20197;-68
2023/08/23 05:39:17;;;;;;;5.30;4.80;;;24.00;99.90;;;;;;5026183;28;20195;-68
2023/08/23 05:41:43;;;;;;;5.63;4.35;;;24.10;99.90;;;;;;5043569;28;20242;-68
2023/08/23 05:44:08;;;;;;;5.03;4.63;;;24.10;99.90;;;;;;5031384;28;20194;-68
2023/08/23 05:46:34;;;;;;;5.00;4.57;;;24.10;99.90;;;;;;5043528;28;20185;-68
2023/08/23 05:49:00;;;;;;;5.93;4.50;;;24.10;99.90;;;;;;5042430;28;20175;-67
2023/08/23 05:51:26;;;;;;;4.80;4.35;;;24.10;99.90;;;;;;5027619;28;20189;-68
2023/08/23 05:53:51;;;;;;;5.13;4.65;;;24.10;99.90;;;;;;5043405;28;20187;-68
2023/08/23 05:56:17;;;;;;;5.30;4.80;;;24.10;99.90;;;;;;5045055;28;20214;-67
2023/08/23 05:58:43;;;;;;;5.72;5.13;;;24.10;99.90;;;;;;5045906;28;20202;-67
2023/08/23 06:01:08;;;;;;;5.28;4.85;;;24.10;99.90;;;;;;5049816;28;20194;-68
2023/08/23 06:03:34;;;;;;;4.95;4.45;;;24.10;99.90;;;;;;5052613;28;20654;-68
2023/08/23 06:06:00;;;;;;;5.72;4.82;;;24.10;99.90;;;;;;5043445;28;20697;-68
2023/08/23 06:08:25;;;;;;;5.00;4.50;;;24.10;99.90;;;;;;5042951;28;20269;-68
2023/08/23 06:10:51;;;;;;;8.52;5.82;;;24.20;99.90;;;;;;5035205;28;20182;-68
2023/08/23 06:13:18;;;;;;;6.32;5.72;;;24.10;99.90;;;;;;5043244;28;20191;-67
2023/08/23 06:15:44;;;;;;;6.22;5.63;;;24.10;99.90;;;;;;5051702;28;20218;-68
2023/08/23 06:18:10;;;;;;;5.95;5.38;;;24.10;99.90;;;;;;5033629;28;20265;-66
2023/08/23 06:20:35;;;;;;;8.07;6.03;;;24.10;99.90;;;;;;5044705;28;20198;-68
2023/08/23 06:23:02;;;;;;;6.63;5.80;;;24.00;99.90;;;;;;5051230;28;20226;-67
2023/08/23 06:25:28;;;;;;;6.43;5.82;;;24.00;99.90;;;;;;5036521;28;20194;-67
2023/08/23 06:27:53;;;;;;;6.18;5.50;;;24.30;99.90;;;;;;5035228;28;20190;-67
2023/08/23 06:30:21;;;;;;;6.30;5.70;;;24.30;99.90;;;;;;5042911;28;20237;-67
2023/08/23 06:32:48;;;;;;;8.07;5.63;;;24.00;99.90;;;;;;5038766;28;20270;-67
2023/08/23 06:35:16;;;;;;;9.18;5.75;;;24.10;99.90;;;;;;5055113;28;20280;-67
2023/08/23 06:37:42;;;;;;;5.72;5.05;;;24.30;99.90;;;;;;5046788;28;20704;-67
2023/08/23 06:40:11;;;;;;;5.65;4.35;;;24.40;99.90;;;;;;5055630;28;20195;-70
2023/08/23 06:42:38;;;;;;;4.32;4.00;;;24.40;99.90;;;;;;5048569;28;20221;-70
2023/08/23 06:45:05;;;;;;;5.03;4.53;;;24.60;99.90;;;;;;5031059;28;20301;-70
2023/08/23 06:47:31;;;;;;;5.18;3.90;;;24.60;99.90;;;;;;5039128;28;20187;-70
2023/08/23 06:49:57;;;;;;;4.78;4.25;;;24.60;99.90;;;;;;5030977;28;20194;-70
2023/08/23 06:52:23;;;;;;;5.30;4.22;;;24.70;99.90;;;;;;5045750;28;20220;-70
2023/08/23 06:54:49;;;;;;;4.25;3.95;;;24.70;99.90;;;;;;5043988;28;20207;-70
2023/08/23 06:57:15;;;;;;;4.63;4.28;;;24.70;99.90;;;;;;5036558;28;20254;-70
2023/08/23 06:59:40;;;;;;;4.60;4.30;;;24.70;99.90;;;;;;5051575;28;20198;-69
2023/08/23 07:02:06;;;;;;;6.07;4.10;;;24.70;99.90;;;;;;5038661;28;20210;-70
2023/08/23 07:04:32;;;;;;;4.97;3.88;;;24.80;99.90;;;;;;5048658;28;20575;-70
2023/08/23 07:06:57;;;;;;;4.85;3.70;;;24.70;99.90;;;;;;5055481;28;20187;-70
2023/08/23 07:09:23;;;;;;;5.07;4.10;;;24.80;99.90;;;;;;5035799;28;20186;-70
2023/08/23 07:11:49;;;;;;;4.75;4.35;;;24.80;99.90;;;;;;5044638;28;20183;-70
2023/08/23 07:14:15;;;;;;;4.03;3.63;;;24.80;99.90;;;;;;5031603;28;20196;-70
2023/08/23 07:16:40;;;;;;;4.57;3.90;;;24.80;99.90;;;;;;5038219;28;20198;-70
2023/08/23 07:19:06;;;;;;;5.03;4.10;;;24.80;99.90;;;;;;5051849;28;20218;-70
2023/08/23 07:21:32;;;;;;;4.45;4.15;;;24.80;99.90;;;;;;5047073;28;20207;-69
2023/08/23 07:23:58;;;;;;;4.53;4.13;;;24.80;99.90;;;;;;5032159;28;20187;-70
2023/08/23 07:26:24;;;;;;;4.25;3.92;;;24.80;99.90;;;;;;5036947;28;20202;-69
2023/08/23 07:28:50;;;;;;;4.22;3.78;;;24.80;99.90;;;;;;5043611;28;20258;-68
2023/08/23 07:31:16;;;;;;;4.35;3.95;;;24.80;99.90;;;;;;5027981;28;20263;-69
2023/08/23 07:33:41;;;;;;;4.57;4.00;;;24.80;99.90;;;;;;5055709;28;20571;-69
2023/08/23 07:36:08;;;;;;;4.18;3.88;;;24.80;99.90;;;;;;5042868;28;20211;-69
2023/08/23 07:38:34;;;;;;;4.80;4.30;;;24.80;99.90;;;;;;5031273;28;20180;-67
2023/08/23 07:41:03;;;;;;;4.35;3.95;;;24.80;99.90;;;;;;5030884;28;20187;-68
2023/08/23 07:43:29;;;;;;;4.65;3.78;;;24.80;99.90;;;;;;5034330;28;20222;-67
2023/08/23 07:45:58;;;;;;;4.38;3.72;;;24.80;99.90;;;;;;5052770;28;20218;-69
2023/08/23 07:48:24;;;;;;;4.00;3.70;;;24.80;99.90;;;;;;5046191;28;20248;-69
2023/08/23 07:51:01;;;;;;;4.15;3.85;;;24.80;99.90;;;;;;5047718;28;20194;-69
2023/08/23 07:53:29;;;;;;;5.15;4.03;;;24.80;99.90;;;;;;5046395;28;20244;-70
2023/08/23 07:55:55;;;;;;;3.83;3.40;;;24.80;99.90;;;;;;5053882;28;20269;-70
2023/08/23 07:58:22;;;;;;;4.50;3.80;;;24.80;99.90;;;;;;5044381;28;20200;-70
2023/08/23 08:00:49;;;;;;;4.00;3.58;;;24.80;99.90;;;;;;5048764;28;20679;-70
2023/08/23 08:03:15;;;;;;;4.20;3.90;;;24.80;99.90;;;;;;5046788;28;20218;-69
2023/08/23 08:05:41;;;;;;;4.40;3.85;;;24.80;99.90;;;;;;5029652;28;20220;-70
2023/08/23 08:08:08;;;;;;;3.50;3.20;;;24.80;99.90;;;;;;5029444;28;20194;-70
2023/08/23 08:10:33;;;;;;;4.22;3.83;;;24.80;99.90;;;;;;5051012;28;20183;-69
2023/08/23 08:12:59;;;;;;;4.60;4.15;;;24.80;99.90;;;;;;5042547;28;20257;-70
2023/08/23 08:15:26;;;;;;;4.50;4.15;;;24.80;99.90;;;;;;5051380;28;20226;-70
2023/08/23 08:17:52;;;;;;;5.13;4.38;;;24.80;99.90;;;;;;5045648;28;20265;-69
2023/08/23 08:20:20;;;;;;;4.47;4.07;;;24.80;99.90;;;;;;5052628;28;20289;-69
2023/08/23 08:22:46;;;;;;;4.50;4.05;;;24.80;99.90;;;;;;5030538;28;20218;-70
2023/08/23 08:25:13;;;;;;;3.78;3.47;;;24.80;99.90;;;;;;5053177;28;20716;-70
2023/08/23 08:27:39;;;;;;;4.47;3.90;;;24.90;99.90;;;;;;5049535;28;20241;-70
2023/08/23 08:30:06;;;;;;;3.97;3.67;;;24.90;99.90;;;;;;5032133;28;20186;-68
2023/08/23 08:32:33;;;;;;;4.53;4.13;;;24.90;99.90;;;;;;5053017;28;20210;-70
2023/08/23 08:34:59;;;;;;;4.53;4.13;;;24.90;99.90;;;;;;5044899;28;20234;-69
2023/08/23 08:37:25;;;;;;;4.38;3.80;;;24.90;99.90;;;;;;5040405;28;20183;-69
2023/08/23 08:39:50;;;;;;;4.40;4.10;;;24.90;99.90;;;;;;5054576;28;20191;-69
2023/08/23 08:42:16;;;;;;;4.47;4.13;;;24.90;99.90;;;;;;5041806;28;20586;-69
2023/08/23 08:44:46;;;;;;;5.35;4.05;;;24.90;99.90;;;;;;5030897;28;20675;-71
2023/08/23 08:47:12;;;;;;;7.78;3.70;;;25.00;99.90;;;;;;5040597;28;20186;-70
2023/08/23 08:49:38;;;;;;;7.90;4.45;;;25.00;99.90;;;;;;5033451;28;20187;-69
2023/08/23 08:52:06;;;;;;;5.47;4.10;;;25.10;99.90;;;;;;5048238;28;20255;-70
2023/08/23 08:54:34;;;;;;;8.88;4.05;;;25.00;99.90;;;;;;5044313;28;20241;-69
2023/08/23 08:57:01;;;;;;;5.70;4.13;;;25.00;99.90;;;;;;5034231;28;20194;-70
2023/08/23 08:59:27;;;;;;;8.30;4.03;;;25.00;99.90;;;;;;5033939;28;20180;-70
2023/08/23 09:01:58;;;;;;;4.70;4.15;;;25.00;99.90;;;;;;5035330;28;20225;-70
2023/08/23 09:04:24;;;;;;;5.38;4.20;;;25.00;99.90;;;;;;5031269;28;20187;-70
2023/08/23 09:06:50;;;;;;;10.35;3.95;;;25.00;99.90;;;;;;5017838;28;20187;-69
2023/08/23 09:09:16;;;;;;;6.30;4.07;;;25.00;99.90;;;;;;5050702;28;20182;-69
2023/08/23 09:11:42;;;;;;;9.95;4.72;;;25.00;99.90;;;;;;5016619;28;20183;-70
2023/08/23 09:14:21;;;;;;;6.97;3.90;;;25.00;99.90;;;;;;5041152;28;20205;-70
2023/08/23 09:16:48;;;;;;;5.30;4.18;;;25.00;99.90;;;;;;5026903;28;20186;-70
2023/08/23 09:19:14;;;;;;;11.95;4.00;;;25.00;99.90;;;;;;5032578;28;20190;-70
2023/08/23 09:21:50;;;;;;;8.23;3.90;;;25.00;99.90;;;;;;5044676;28;20250;-70
2023/08/23 09:24:18;;;;;;;5.28;3.90;;;24.90;99.90;;;;;;5028431;28;20197;-67
2023/08/23 09:26:45;;;;;;;6.43;4.25;;;25.00;99.90;;;;;;5033493;28;20218;-70
2023/08/23 09:29:11;;;;;;;4.88;3.80;;;25.00;99.90;;;;;;5035024;28;20183;-69
2023/08/23 09:31:39;;;;;;;5.78;4.07;;;25.00;99.90;;;;;;5040688;28;20198;-70
2023/08/23 09:34:14;;;;;;;6.28;4.20;;;25.00;99.90;;;;;;5024151;28;20187;-70
2023/08/23 09:36:40;;;;;;;5.38;4.28;;;25.00;99.90;;;;;;5032829;28;20214;-70
2023/08/23 09:39:09;;;;;;;4.55;4.15;;;25.00;99.90;;;;;;5040186;28;20561;-70
2023/08/23 09:41:44;;;;;;;5.68;4.20;;;25.00;99.90;;;;;;5034525;28;20219;-70
2023/08/23 09:44:10;;;;;;;7.07;4.05;;;25.00;99.90;;;;;;5027661;28;20573;-70
2023/08/23 09:46:40;;;;;;;3.83;3.50;;;25.00;99.90;;;;;;5044206;28;20183;-70
2023/08/23 09:49:07;;;;;;;4.50;4.10;;;25.00;99.90;;;;;;5034925;28;20199;-70
2023/08/23 09:51:38;;;;;;;4.68;3.97;;;25.00;99.90;;;;;;5016231;28;20198;-69
2023/08/23 09:54:16;;;;;;;6.93;3.83;;;25.00;99.90;;;;;;5039590;28;20190;-70
2023/08/23 09:56:43;;;;;;;3.92;3.63;;;25.00;99.90;;;;;;5035232;28;20328;-70
2023/08/23 09:59:11;;;;;;;5.50;3.90;;;25.00;99.90;;;;;;5027545;28;20197;-70
2023/08/23 10:01:38;;;;;;;6.25;4.05;;;25.00;99.90;;;;;;5042473;28;20210;-70
2023/08/23 10:04:06;;;;;;;6.00;3.63;;;25.00;99.90;;;;;;5046123;28;20649;-70
2023/08/23 10:06:33;;;;;;;5.10;3.97;;;25.00;99.90;;;;;;5045947;28;20271;-69
2023/08/23 10:09:00;;;;;;;4.22;3.83;;;25.00;99.90;;;;;;5044637;28;20183;-69
2023/08/23 10:11:28;;;;;;;5.47;3.70;;;25.00;99.90;;;;;;5033098;28;20200;-70
2023/08/23 10:13:58;;;;;;;4.45;4.05;;;25.00;99.90;;;;;;5040129;28;20210;-69
2023/08/23 10:16:26;;;;;;;4.30;3.90;;;25.00;99.90;;;;;;5049217;28;20233;-69
2023/08/23 10:18:53;;;;;;;5.00;3.60;;;25.00;99.90;;;;;;5039212;28;20218;-70
2023/08/23 10:21:19;;;;;;;5.47;3.92;;;25.00;99.90;;;;;;5056232;28;20285;-70
2023/08/23 10:23:46;;;;;;;5.70;4.13;;;25.00;99.90;;;;;;5036762;28;20748;-69
2023/08/23 10:26:22;;;;;;;4.38;3.78;;;25.00;99.90;;;;;;5019933;28;20195;-70
2023/08/23 10:28:51;;;;;;;4.10;3.70;;;25.00;99.90;;;;;;5045892;28;20187;-70
2023/08/23 10:31:28;;;;;;;4.25;3.63;;;25.00;99.90;;;;;;5051611;28;20190;-70
2023/08/23 10:33:58;;;;;;;5.13;4.10;;;25.00;99.90;;;;;;5041535;28;20186;-69
2023/08/23 10:36:27;;;;;;;4.18;3.75;;;25.00;99.90;;;;;;5040010;28;20214;-69
2023/08/23 10:38:59;;;;;;;4.97;3.45;;;25.10;99.90;;;;;;5036330;28;20214;-71
2023/08/23 10:41:25;;;;;;;4.15;3.47;;;25.00;99.90;;;;;;5029290;28;20180;-70
2023/08/23 10:43:52;;;;;;;5.45;3.63;;;25.00;99.90;;;;;;5072208;28;20210;-69
2023/08/23 10:46:22;;;;;;;4.22;3.85;;;25.00;99.90;;;;;;5046453;28;20203;-70
2023/08/23 10:48:48;;;;;;;4.68;4.28;;;25.10;99.90;;;;;;5022281;28;20175;-68
2023/08/23 10:51:15;;;;;;;4.13;3.60;;;25.10;99.90;;;;;;5041383;28;20209;-70
2023/08/23 10:53:42;;;;;;;3.70;3.30;;;25.10;99.90;;;;;;5038386;28;20187;-70
2023/08/23 10:56:09;;;;;;;4.30;4.00;;;25.10;99.90;;;;;;5047175;28;20210;-70
2023/08/23 10:58:37;;;;;;;4.22;3.92;;;25.10;99.90;;;;;;5037783;28;20658;-71
2023/08/23 11:01:04;;;;;;;4.18;3.72;;;25.10;99.90;;;;;;5023758;28;20661;-70
2023/08/23 11:03:32;;;;;;;5.82;4.00;;;25.10;99.90;;;;;;5030188;28;20216;-69
2023/08/23 11:05:59;;;;;;;4.22;3.65;;;25.10;99.90;;;;;;5030886;28;20293;-69
2023/08/23 11:08:24;;;;;;;4.15;3.85;;;25.10;99.90;;;;;;5039651;28;20647;-69
2023/08/23 11:10:50;;;;;;;3.75;3.45;;;25.10;99.90;;;;;;5045396;28;20209;-70
2023/08/23 11:13:16;;;;;;;3.95;3.55;;;25.10;99.90;;;;;;5014361;28;20194;-69
2023/08/23 11:15:43;;;;;;;4.00;3.63;;;25.10;99.90;;;;;;5048394;28;20222;-70
2023/08/23 11:18:11;;;;;;;3.80;3.60;;;25.10;99.90;;;;;;5029474;28;20250;-70
2023/08/23 11:20:37;;;;;;;3.88;3.58;;;25.10;99.90;;;;;;5041479;28;20209;-70
2023/08/23 11:23:03;;;;;;;3.95;3.60;;;25.10;99.90;;;;;;5042950;28;20219;-70
2023/08/23 11:25:29;;;;;;;4.25;3.85;;;25.10;99.90;;;;;;5043152;28;20218;-70
2023/08/23 11:27:56;;;;;;;4.40;3.97;;;25.10;99.90;;;;;;5051188;28;20274;-70
2023/08/23 11:30:22;;;;;;;4.68;4.28;;;25.10;99.90;;;;;;5025701;28;20182;-70
2023/08/23 11:32:48;;;;;;;3.67;3.38;;;25.10;99.90;;;;;;5019641;28;20202;-70
2023/08/23 11:35:17;;;;;;;3.72;3.38;;;25.10;99.90;;;;;;5048654;28;20207;-70
2023/08/23 11:37:42;;;;;;;4.00;3.70;;;25.10;99.90;;;;;;5046599;28;20195;-71
2023/08/23 11:40:10;;;;;;;4.65;4.25;;;25.10;99.90;;;;;;5026763;28;20190;-71
2023/08/23 11:42:38;;;;;;;4.18;3.85;;;25.10;99.90;;;;;;5018872;28;20222;-70
2023/08/23 11:45:05;;;;;;;3.85;3.55;;;25.10;99.90;;;;;;5046326;28;20233;-70
2023/08/23 11:47:32;;;;;;;3.95;3.65;;;25.10;99.90;;;;;;5046975;28;20264;-71
2023/08/23 11:49:58;;;;;;;3.88;3.58;;;25.10;99.90;;;;;;5038272;28;20245;-70
2023/08/23 11:52:29;;;;;;;4.38;3.97;;;25.10;99.90;;;;;;5044879;28;20225;-71
2023/08/23 11:54:55;;;;;;;4.93;3.63;;;25.10;99.90;;;;;;5037400;28;20215;-70
2023/08/23 11:57:21;;;;;;;4.00;3.55;;;25.10;99.90;;;;;;5017902;28;20191;-70
2023/08/23 11:59:48;;;;;;;3.92;3.63;;;25.10;99.90;;;;;;5034311;28;20222;-70
2023/08/23 12:02:14;;;;;;;3.72;3.45;;;25.10;99.90;;;;;;5033771;28;20578;-70
2023/08/23 12:04:44;;;;;;;4.05;3.70;;;25.10;99.90;;;;;;5033763;28;20282;-70
2023/08/23 12:07:11;;;;;;;3.90;3.60;;;25.10;99.90;;;;;;5042768;28;20202;-70
2023/08/23 12:09:39;;;;;;;4.03;3.40;;;25.20;99.90;;;;;;5043977;28;20198;-70
2023/08/23 12:12:06;;;;;;;3.72;3.42;;;25.10;99.90;;;;;;5050222;28;20191;-68
2023/08/23 12:14:31;;;;;;;4.40;4.00;;;25.20;99.90;;;;;;5034202;28;20211;-70
2023/08/23 12:16:57;;;;;;;4.22;3.75;;;25.20;99.90;;;;;;5050733;28;20194;-70
2023/08/23 12:19:23;;;;;;;3.63;3.40;;;25.20;99.90;;;;;;4999064;28;20198;-70
2023/08/23 12:21:52;;;;;;;4.30;3.90;;;25.20;99.90;;;;;;5035968;28;20254;-70
2023/08/23 12:24:18;;;;;;;3.67;3.38;;;25.20;99.90;;;;;;5022700;28;20187;-70
2023/08/23 12:26:44;;;;;;;4.18;3.72;;;25.20;99.90;;;;;;5053639;28;20201;-71
2023/08/23 12:29:10;;;;;;;3.75;3.45;;;25.10;99.90;;;;;;5036782;28;20178;-71
2023/08/23 12:31:35;;;;;;;3.75;3.45;;;25.10;99.90;;;;;;5037042;28;20207;-70
2023/08/23 12:34:02;;;;;;;4.22;3.90;;;25.20;99.90;;;;;;5053327;28;20186;-70
2023/08/23 12:36:28;;;;;;;4.38;4.07;;;25.20;99.90;;;;;;5045729;28;20212;-70
2023/08/23 12:38:53;;;;;;;4.53;4.20;;;25.20;99.90;;;;;;5037079;28;20195;-69
2023/08/23 12:41:19;;;;;;;3.53;3.33;;;25.20;99.90;;;;;;5031675;28;20179;-70
2023/08/23 12:43:45;;;;;;;4.13;3.83;;;25.20;99.90;;;;;;5039174;28;20188;-70
2023/08/23 12:46:10;;;;;;;3.97;3.67;;;25.10;99.90;;;;;;5031397;28;20217;-71